createdAt,value
2018-08-22T00:01:25.435Z,23.80
2018-08-22T00:02:25.356Z,23.82
2018-08-22T00:04:18.181Z,23.79
2018-08-22T00:05:18.104Z,23.77
2018-08-22T00:07:10.898Z,23.79
2018-08-22T00:08:10.850Z,23.83
2018-08-22T00:10:03.672Z,23.85
2018-08-22T00:11:03.594Z,23.94
2018-08-22T00:12:56.388Z,23.82
2018-08-22T00:13:56.340Z,23.89
2018-08-22T00:15:49.164Z,23.76
2018-08-22T00:16:49.085Z,23.87
2018-08-22T00:18:41.880Z,23.83
2018-08-22T00:19:41.832Z,23.76
2018-08-22T00:21:34.659Z,23.77
2018-08-22T00:22:34.585Z,23.77
2018-08-22T00:24:27.371Z,23.82
2018-08-22T00:25:27.383Z,23.82
2018-08-22T00:27:20.145Z,23.79
2018-08-22T00:28:20.066Z,23.71
2018-08-22T00:30:12.858Z,23.77
2018-08-22T00:31:12.812Z,23.71
2018-08-22T00:33:05.636Z,23.80
2018-08-22T00:34:05.558Z,23.68
2018-08-22T00:35:58.352Z,23.75
2018-08-22T00:36:58.303Z,23.77
2018-08-22T00:38:51.127Z,23.83
2018-08-22T00:39:51.048Z,23.79
2018-08-22T00:41:43.846Z,23.80
2018-08-22T00:42:43.798Z,23.79
2018-08-22T00:44:36.622Z,23.75
2018-08-22T00:45:36.544Z,23.71
2018-08-22T00:47:29.338Z,23.65
2018-08-22T00:48:29.289Z,23.71
2018-08-22T00:50:22.115Z,23.79
2018-08-22T00:51:22.033Z,23.65
2018-08-22T00:53:14.824Z,23.68
2018-08-22T00:54:14.776Z,23.70
2018-08-22T00:56:07.602Z,23.76
2018-08-22T00:57:07.522Z,23.71
2018-08-22T00:59:00.315Z,23.77
2018-08-22T01:00:00.269Z,23.71
2018-08-22T01:01:53.091Z,23.80
2018-08-22T01:02:53.012Z,23.65
2018-08-22T01:04:45.806Z,23.68
2018-08-22T01:05:45.757Z,23.79
2018-08-22T01:07:38.580Z,23.70
2018-08-22T01:08:38.506Z,23.67
2018-08-22T01:10:31.296Z,23.72
2018-08-22T01:11:31.249Z,23.77
2018-08-22T01:13:24.086Z,23.77
2018-08-22T01:14:23.994Z,23.70
2018-08-22T01:16:16.789Z,23.82
2018-08-22T01:17:16.747Z,23.72
2018-08-22T01:19:09.561Z,23.82
2018-08-22T01:20:09.483Z,23.72
2018-08-22T01:22:02.273Z,23.76
2018-08-22T01:23:02.224Z,23.67
2018-08-22T01:24:55.052Z,23.68
2018-08-22T01:25:54.974Z,23.67
2018-08-22T01:27:47.774Z,23.68
2018-08-22T01:28:47.726Z,23.70
2018-08-22T01:30:40.549Z,23.76
2018-08-22T01:31:40.471Z,23.75
2018-08-22T01:33:33.261Z,23.76
2018-08-22T01:34:33.215Z,23.77
2018-08-22T01:36:26.035Z,23.75
2018-08-22T01:37:25.955Z,23.64
2018-08-22T01:39:18.749Z,23.64
2018-08-22T01:40:18.700Z,23.71
2018-08-22T01:42:11.520Z,23.70
2018-08-22T01:43:11.441Z,23.71
2018-08-22T01:45:04.233Z,23.67
2018-08-22T01:46:04.184Z,23.64
2018-08-22T01:47:57.009Z,23.64
2018-08-22T01:48:56.931Z,23.61
2018-08-22T01:50:49.725Z,23.65
2018-08-22T01:51:49.677Z,23.58
2018-08-22T01:53:42.499Z,23.58
2018-08-22T01:54:42.422Z,23.62
2018-08-22T01:56:35.217Z,23.67
2018-08-22T01:57:35.167Z,23.64
2018-08-22T01:59:27.986Z,23.64
2018-08-22T02:00:27.909Z,23.65
2018-08-22T02:02:20.698Z,23.72
2018-08-22T02:03:20.653Z,23.71
2018-08-22T02:05:13.487Z,23.65
2018-08-22T02:06:13.394Z,23.60
2018-08-22T02:08:06.186Z,23.64
2018-08-22T02:09:06.139Z,23.67
2018-08-22T02:10:58.960Z,23.61
2018-08-22T02:11:58.880Z,23.62
2018-08-22T02:13:51.671Z,23.62
2018-08-22T02:14:51.623Z,23.61
2018-08-22T02:16:44.441Z,23.64
2018-08-22T02:17:44.363Z,23.65
2018-08-22T02:19:37.153Z,23.67
2018-08-22T02:20:37.107Z,23.61
2018-08-22T02:22:29.959Z,23.65
2018-08-22T02:23:29.883Z,23.60
2018-08-22T02:25:22.677Z,23.60
2018-08-22T02:26:22.628Z,23.60
2018-08-22T02:28:15.463Z,23.62
2018-08-22T02:29:15.372Z,23.64
2018-08-22T02:31:08.165Z,23.62
2018-08-22T02:32:08.116Z,23.58
2018-08-22T02:34:00.935Z,23.62
2018-08-22T02:35:00.860Z,23.58
2018-08-22T02:36:53.651Z,23.55
2018-08-22T02:37:53.602Z,23.60
2018-08-22T02:39:46.423Z,23.58
2018-08-22T02:40:46.346Z,23.57
2018-08-22T02:42:39.253Z,23.50
2018-08-22T02:43:39.088Z,23.55
2018-08-22T02:45:31.914Z,23.55
2018-08-22T02:46:31.840Z,23.50
2018-08-22T02:48:24.630Z,23.47
2018-08-22T02:49:24.581Z,23.46
2018-08-22T02:51:17.404Z,23.47
2018-08-22T02:52:17.326Z,23.39
2018-08-22T02:54:10.119Z,23.43
2018-08-22T02:55:10.068Z,23.40
2018-08-22T02:57:02.892Z,23.47
2018-08-22T02:58:02.810Z,23.32
2018-08-22T02:59:55.600Z,23.34
2018-08-22T03:00:55.552Z,23.31
2018-08-22T03:02:48.373Z,23.29
2018-08-22T03:03:48.295Z,23.40
2018-08-22T03:05:41.085Z,23.34
2018-08-22T03:06:41.045Z,23.39
2018-08-22T03:08:33.858Z,23.40
2018-08-22T03:09:33.780Z,23.38
2018-08-22T03:11:26.575Z,23.38
2018-08-22T03:12:26.526Z,23.31
2018-08-22T03:14:19.346Z,23.34
2018-08-22T03:15:19.268Z,23.32
2018-08-22T03:17:12.058Z,23.24
2018-08-22T03:18:12.013Z,23.27
2018-08-22T03:20:04.832Z,23.39
2018-08-22T03:21:04.754Z,23.24
2018-08-22T03:22:57.543Z,23.26
2018-08-22T03:23:57.496Z,23.27
2018-08-22T03:25:50.327Z,23.27
2018-08-22T03:26:50.237Z,23.27
2018-08-22T03:28:43.024Z,23.32
2018-08-22T03:29:42.976Z,23.27
2018-08-22T03:31:35.798Z,23.24
2018-08-22T03:32:35.718Z,23.15
2018-08-22T03:34:28.509Z,23.27
2018-08-22T03:35:28.463Z,23.11
2018-08-22T03:37:21.283Z,23.19
2018-08-22T03:38:21.211Z,23.15
2018-08-22T03:40:13.995Z,23.17
2018-08-22T03:41:13.948Z,23.14
2018-08-22T03:43:06.781Z,23.23
2018-08-22T03:44:06.689Z,23.12
2018-08-22T03:45:59.484Z,23.20
2018-08-22T03:46:59.434Z,23.19
2018-08-22T03:48:52.255Z,23.15
2018-08-22T03:49:52.177Z,23.11
2018-08-22T03:51:44.974Z,23.09
2018-08-22T03:52:44.923Z,23.09
2018-08-22T03:54:37.742Z,23.08
2018-08-22T03:55:37.665Z,23.11
2018-08-22T03:57:30.454Z,23.02
2018-08-22T03:58:30.404Z,23.04
2018-08-22T04:00:23.229Z,23.02
2018-08-22T04:01:23.148Z,23.08
2018-08-22T04:03:15.936Z,23.08
2018-08-22T04:04:15.887Z,23.01
2018-08-22T04:06:08.706Z,23.05
2018-08-22T04:07:08.629Z,23.02
2018-08-22T04:09:01.420Z,23.02
2018-08-22T04:10:01.374Z,23.04
2018-08-22T04:11:54.191Z,23.04
2018-08-22T04:12:54.111Z,23.01
2018-08-22T04:14:46.905Z,23.01
2018-08-22T04:15:46.856Z,23.01
2018-08-22T04:17:39.677Z,22.99
2018-08-22T04:18:39.597Z,22.94
2018-08-22T04:20:32.390Z,22.99
2018-08-22T04:21:32.339Z,22.96
2018-08-22T04:23:25.158Z,23.01
2018-08-22T04:24:25.078Z,22.99
2018-08-22T04:26:17.870Z,23.05
2018-08-22T04:27:17.821Z,22.99
2018-08-22T04:29:10.643Z,23.05
2018-08-22T04:30:10.563Z,23.02
2018-08-22T04:32:03.353Z,23.11
2018-08-22T04:33:03.305Z,23.19
2018-08-22T04:34:56.126Z,23.24
2018-08-22T04:35:56.048Z,23.22
2018-08-22T04:37:48.840Z,23.20
2018-08-22T04:38:48.791Z,23.27
2018-08-22T04:40:41.622Z,23.27
2018-08-22T04:41:41.535Z,23.23
2018-08-22T04:43:34.327Z,23.34
2018-08-22T04:44:34.277Z,23.27
2018-08-22T04:46:27.099Z,23.24
2018-08-22T04:47:27.019Z,23.24
2018-08-22T04:49:19.809Z,23.24
2018-08-22T04:50:19.759Z,23.24
2018-08-22T04:52:12.592Z,23.27
2018-08-22T04:53:12.499Z,23.32
2018-08-22T04:55:05.289Z,23.27
2018-08-22T04:56:05.239Z,23.27
2018-08-22T04:57:58.062Z,23.26
2018-08-22T04:58:57.983Z,23.26
2018-08-22T05:00:50.771Z,23.24
2018-08-22T05:01:50.723Z,23.22
2018-08-22T05:03:43.538Z,23.20
2018-08-22T05:04:43.459Z,23.27
2018-08-22T05:06:36.250Z,23.22
2018-08-22T05:07:36.202Z,23.24
2018-08-22T05:09:29.024Z,23.27
2018-08-22T05:10:28.944Z,23.24
2018-08-22T05:12:21.738Z,23.22
2018-08-22T05:13:21.694Z,23.24
2018-08-22T05:15:14.530Z,23.22
2018-08-22T05:16:14.453Z,23.26
2018-08-22T05:18:07.275Z,23.24
2018-08-22T05:19:07.197Z,23.27
2018-08-22T05:21:00.019Z,23.24
2018-08-22T05:21:59.938Z,23.27
2018-08-22T05:23:52.732Z,23.27
2018-08-22T05:24:52.756Z,23.26
2018-08-22T05:26:45.506Z,23.35
2018-08-22T05:27:45.429Z,23.26
2018-08-22T05:29:38.222Z,23.32
2018-08-22T05:30:38.173Z,23.29
2018-08-22T05:32:30.998Z,23.31
2018-08-22T05:33:30.918Z,23.31
2018-08-22T05:35:23.709Z,23.35
2018-08-22T05:36:23.665Z,23.27
2018-08-22T05:38:16.488Z,23.34
2018-08-22T05:39:16.408Z,23.35
2018-08-22T05:41:09.202Z,23.38
2018-08-22T05:42:09.154Z,23.34
2018-08-22T05:44:01.979Z,23.38
2018-08-22T05:45:01.899Z,23.40
2018-08-22T05:46:54.691Z,23.35
2018-08-22T05:47:54.642Z,23.42
2018-08-22T05:49:47.473Z,23.38
2018-08-22T05:50:47.387Z,23.31
2018-08-22T05:52:40.181Z,23.40
2018-08-22T05:53:40.132Z,23.34
2018-08-22T05:55:32.969Z,23.34
2018-08-22T05:56:32.877Z,23.35
2018-08-22T05:58:25.668Z,23.32
2018-08-22T05:59:25.619Z,23.34
2018-08-22T06:01:18.441Z,23.32
2018-08-22T06:02:18.362Z,23.32
2018-08-22T06:04:11.152Z,23.31
2018-08-22T06:05:11.109Z,23.40
2018-08-22T06:07:03.956Z,23.43
2018-08-22T06:08:03.878Z,23.40
2018-08-22T06:09:56.669Z,23.40
2018-08-22T06:10:56.622Z,23.42
2018-08-22T06:12:49.441Z,23.42
2018-08-22T06:13:49.363Z,23.47
2018-08-22T06:15:42.204Z,23.38
2018-08-22T06:16:42.107Z,23.42
2018-08-22T06:18:34.932Z,23.43
2018-08-22T06:19:34.849Z,23.46
2018-08-22T06:21:27.640Z,23.46
2018-08-22T06:22:27.592Z,23.42
2018-08-22T06:24:20.416Z,23.47
2018-08-22T06:25:20.336Z,23.39
2018-08-22T06:27:13.130Z,23.42
2018-08-22T06:28:13.082Z,23.40
2018-08-22T06:30:05.918Z,23.39
2018-08-22T06:31:05.829Z,23.43
2018-08-22T06:32:58.628Z,23.42
2018-08-22T06:33:58.574Z,23.46
2018-08-22T06:35:51.397Z,23.45
2018-08-22T06:36:51.316Z,23.47
2018-08-22T06:38:44.107Z,23.49
2018-08-22T06:39:44.060Z,23.50
2018-08-22T06:41:36.884Z,23.47
2018-08-22T06:42:36.804Z,23.52
2018-08-22T06:44:29.597Z,23.53
2018-08-22T06:45:29.550Z,23.46
2018-08-22T06:47:22.375Z,23.52
2018-08-22T06:48:22.292Z,23.46
2018-08-22T06:50:15.099Z,23.57
2018-08-22T06:51:15.037Z,23.52
2018-08-22T06:53:07.976Z,23.55
2018-08-22T06:54:07.780Z,23.47
2018-08-22T06:56:00.573Z,23.57
2018-08-22T06:57:00.576Z,23.58
2018-08-22T06:58:53.357Z,23.52
2018-08-22T06:59:53.369Z,23.53
2018-08-22T07:01:46.058Z,23.55
2018-08-22T07:02:46.008Z,23.55
2018-08-22T07:04:38.833Z,23.50
2018-08-22T07:05:38.756Z,23.58
2018-08-22T07:07:31.544Z,23.64
2018-08-22T07:08:31.497Z,23.53
2018-08-22T07:10:24.317Z,23.60
2018-08-22T07:11:24.240Z,23.62
2018-08-22T07:13:17.031Z,23.61
2018-08-22T07:14:16.984Z,23.60
2018-08-22T07:16:09.817Z,23.60
2018-08-22T07:17:09.730Z,23.62
2018-08-22T07:19:02.518Z,23.58
2018-08-22T07:20:02.468Z,23.58
2018-08-22T07:21:55.293Z,23.65
2018-08-22T07:22:55.214Z,23.60
2018-08-22T07:24:48.006Z,23.60
2018-08-22T07:25:47.959Z,23.65
2018-08-22T07:27:42.108Z,23.65
2018-08-22T07:28:40.777Z,23.65
2018-08-22T07:30:33.568Z,23.62
2018-08-22T07:31:33.521Z,23.62
2018-08-22T07:33:26.344Z,23.62
2018-08-22T07:34:26.263Z,23.64
2018-08-22T07:36:19.053Z,23.64
2018-08-22T07:37:19.006Z,23.61
2018-08-22T07:39:11.839Z,23.64
2018-08-22T07:40:11.749Z,23.62
2018-08-22T07:42:04.547Z,23.61
2018-08-22T07:43:04.489Z,23.55
2018-08-22T07:44:57.325Z,23.55
2018-08-22T07:45:57.232Z,23.60
2018-08-22T07:47:50.067Z,23.64
2018-08-22T07:48:49.976Z,23.60
2018-08-22T07:50:42.808Z,23.60
2018-08-22T07:51:42.737Z,23.64
2018-08-22T07:53:35.505Z,23.62
2018-08-22T07:54:35.458Z,23.62
2018-08-22T07:56:28.293Z,23.64
2018-08-22T07:57:28.201Z,23.62
2018-08-22T07:59:20.991Z,23.62
2018-08-22T08:00:20.945Z,23.70
2018-08-22T08:02:13.780Z,23.64
2018-08-22T08:03:13.687Z,23.70
2018-08-22T08:05:06.479Z,23.62
2018-08-22T08:06:06.432Z,23.64
2018-08-22T08:07:59.265Z,23.60
2018-08-22T08:08:59.173Z,23.65
2018-08-22T08:10:51.994Z,23.60
2018-08-22T08:11:51.925Z,23.62
2018-08-22T08:13:44.754Z,23.60
2018-08-22T08:14:44.662Z,23.64
2018-08-22T08:16:37.455Z,23.60
2018-08-22T08:17:37.408Z,23.58
2018-08-22T08:19:30.228Z,23.68
2018-08-22T08:20:30.150Z,23.57
2018-08-22T08:22:22.939Z,23.65
2018-08-22T08:23:22.891Z,23.65
2018-08-22T08:25:15.712Z,23.62
2018-08-22T08:26:15.727Z,23.62
2018-08-22T08:28:08.429Z,23.65
2018-08-22T08:29:08.384Z,23.64
2018-08-22T08:31:01.202Z,23.65
2018-08-22T08:32:01.132Z,23.65
2018-08-22T08:33:53.913Z,23.72
2018-08-22T08:34:53.865Z,23.70
2018-08-22T08:36:46.703Z,23.64
2018-08-22T08:37:46.609Z,23.67
2018-08-22T08:39:39.401Z,23.67
2018-08-22T08:40:39.351Z,23.60
2018-08-22T08:42:32.187Z,23.71
2018-08-22T08:43:32.094Z,23.72
2018-08-22T08:45:24.892Z,23.62
2018-08-22T08:46:24.837Z,23.71
2018-08-22T08:48:17.674Z,23.67
2018-08-22T08:49:17.593Z,23.64
2018-08-22T08:51:10.376Z,23.64
2018-08-22T08:52:10.385Z,23.68
2018-08-22T08:54:03.159Z,23.68
2018-08-22T08:55:03.067Z,23.64
2018-08-22T08:56:55.859Z,23.72
2018-08-22T08:57:55.810Z,23.79
2018-08-22T08:59:48.628Z,23.79
2018-08-22T09:00:48.550Z,23.64
2018-08-22T09:02:41.341Z,23.64
2018-08-22T09:03:41.350Z,23.64
2018-08-22T09:05:34.116Z,23.77
2018-08-22T09:06:34.089Z,23.70
2018-08-22T09:08:26.822Z,23.70
2018-08-22T09:09:26.773Z,23.71
2018-08-22T09:11:19.599Z,23.71
2018-08-22T09:12:19.655Z,23.68
2018-08-22T09:14:12.310Z,23.64
2018-08-22T09:15:12.260Z,23.67
2018-08-22T09:17:05.093Z,23.72
2018-08-22T09:18:05.005Z,23.61
2018-08-22T09:19:57.792Z,23.70
2018-08-22T09:20:57.754Z,23.68
2018-08-22T09:22:50.578Z,23.72
2018-08-22T09:23:50.490Z,23.70
2018-08-22T09:25:43.277Z,23.70
2018-08-22T09:26:43.229Z,23.70
2018-08-22T09:28:36.051Z,23.77
2018-08-22T09:29:36.015Z,23.65
2018-08-22T09:31:28.778Z,23.72
2018-08-22T09:32:28.715Z,23.79
2018-08-22T09:34:21.572Z,23.79
2018-08-22T09:35:21.496Z,23.70
2018-08-22T09:37:14.252Z,23.77
2018-08-22T09:38:14.204Z,23.71
2018-08-22T09:40:07.033Z,23.71
2018-08-22T09:41:06.946Z,23.70
2018-08-22T09:42:59.746Z,23.71
2018-08-22T09:43:59.692Z,23.71
2018-08-22T09:45:52.512Z,23.75
2018-08-22T09:46:52.514Z,23.67
2018-08-22T09:48:45.228Z,23.71
2018-08-22T09:49:45.175Z,23.70
2018-08-22T09:51:38.044Z,23.75
2018-08-22T09:52:37.914Z,23.76
2018-08-22T09:54:30.754Z,23.67
2018-08-22T09:55:30.657Z,23.71
2018-08-22T09:57:23.478Z,23.76
2018-08-22T09:58:23.399Z,23.62
2018-08-22T10:00:16.308Z,23.64
2018-08-22T10:01:16.144Z,23.68
2018-08-22T10:03:08.968Z,23.77
2018-08-22T10:04:08.890Z,23.72
2018-08-22T10:06:01.681Z,23.79
2018-08-22T10:07:01.672Z,23.77
2018-08-22T10:08:54.455Z,23.79
2018-08-22T10:09:54.403Z,23.72
2018-08-22T10:11:47.174Z,23.77
2018-08-22T10:12:47.123Z,23.64
2018-08-22T10:14:39.964Z,23.70
2018-08-22T10:15:39.866Z,23.68
2018-08-22T10:17:32.658Z,23.77
2018-08-22T10:18:32.609Z,23.75
2018-08-22T10:20:25.446Z,23.80
2018-08-22T10:21:25.356Z,23.80
2018-08-22T10:23:18.148Z,23.68
2018-08-22T10:24:18.098Z,23.65
2018-08-22T10:26:10.918Z,23.75
2018-08-22T10:27:10.919Z,23.76
2018-08-22T10:29:03.630Z,23.77
2018-08-22T10:30:03.583Z,23.77
2018-08-22T10:31:56.405Z,23.80
2018-08-22T10:32:56.517Z,23.76
2018-08-22T10:34:49.273Z,23.76
2018-08-22T10:35:49.085Z,23.76
2018-08-22T10:37:41.891Z,23.72
2018-08-22T10:38:41.816Z,23.76
2018-08-22T10:40:34.607Z,23.83
2018-08-22T10:41:34.558Z,23.68
2018-08-22T10:43:27.382Z,23.85
2018-08-22T10:44:27.317Z,23.75
2018-08-22T10:46:20.093Z,23.86
2018-08-22T10:47:20.043Z,23.79
2018-08-22T10:49:12.879Z,23.79
2018-08-22T10:50:12.788Z,23.82
2018-08-22T10:52:05.577Z,23.79
2018-08-22T10:53:05.529Z,23.86
2018-08-22T10:54:58.351Z,23.87
2018-08-22T10:55:58.273Z,23.77
2018-08-22T10:57:51.065Z,23.77
2018-08-22T10:58:51.016Z,23.86
2018-08-22T11:00:43.848Z,23.86
2018-08-22T11:01:43.758Z,23.75
2018-08-22T11:03:36.551Z,23.83
2018-08-22T11:04:36.502Z,23.82
2018-08-22T11:06:29.337Z,23.82
2018-08-22T11:07:29.248Z,23.80
2018-08-22T11:09:22.036Z,23.75
2018-08-22T11:10:21.987Z,23.79
2018-08-22T11:12:14.824Z,23.83
2018-08-22T11:13:14.730Z,23.80
2018-08-22T11:15:07.534Z,23.89
2018-08-22T11:16:07.591Z,23.85
2018-08-22T11:18:00.315Z,23.89
2018-08-22T11:19:00.220Z,23.77
2018-08-22T11:20:53.011Z,23.82
2018-08-22T11:21:52.964Z,23.86
2018-08-22T11:23:45.791Z,23.79
2018-08-22T11:24:45.713Z,23.85
2018-08-22T11:26:38.509Z,23.80
2018-08-22T11:27:38.455Z,23.87
2018-08-22T11:29:31.276Z,23.83
2018-08-22T11:30:31.198Z,23.87
2018-08-22T11:32:23.990Z,23.83
2018-08-22T11:33:23.942Z,23.87
2018-08-22T11:35:16.763Z,23.86
2018-08-22T11:36:16.682Z,23.82
2018-08-22T11:38:09.473Z,23.87
2018-08-22T11:39:09.425Z,23.87
2018-08-22T11:41:02.256Z,23.80
2018-08-22T11:42:02.164Z,23.85
2018-08-22T11:43:54.957Z,23.86
2018-08-22T11:44:54.907Z,23.86
2018-08-22T11:46:47.756Z,23.90
2018-08-22T11:47:47.652Z,23.90
2018-08-22T11:49:40.444Z,23.79
2018-08-22T11:50:40.396Z,23.83
2018-08-22T11:52:33.232Z,23.85
2018-08-22T11:53:33.142Z,23.87
2018-08-22T11:55:25.932Z,23.79
2018-08-22T11:56:25.884Z,23.83
2018-08-22T11:58:18.704Z,23.83
2018-08-22T11:59:18.625Z,23.87
2018-08-22T12:01:11.415Z,23.83
2018-08-22T12:02:11.365Z,23.86
2018-08-22T12:04:04.198Z,23.89
2018-08-22T12:05:04.106Z,23.87
2018-08-22T12:06:56.898Z,23.82
2018-08-22T12:07:56.846Z,23.86
2018-08-22T12:09:49.683Z,23.83
2018-08-22T12:10:49.590Z,23.92
2018-08-22T12:12:42.382Z,23.89
2018-08-22T12:13:42.336Z,23.83
2018-08-22T12:15:35.280Z,23.94
2018-08-22T12:16:35.079Z,23.90
2018-08-22T12:18:27.871Z,23.89
2018-08-22T12:19:27.824Z,23.89
2018-08-22T12:21:20.648Z,23.87
2018-08-22T12:22:20.567Z,23.83
2018-08-22T12:24:13.365Z,23.83
2018-08-22T12:25:13.316Z,23.85
2018-08-22T12:27:06.149Z,23.90
2018-08-22T12:28:06.054Z,23.94
2018-08-22T12:29:58.844Z,23.90
2018-08-22T12:30:58.824Z,23.89
2018-08-22T12:32:51.615Z,23.90
2018-08-22T12:33:51.540Z,23.87
2018-08-22T12:35:44.326Z,23.97
2018-08-22T12:36:44.277Z,23.86
2018-08-22T12:38:37.109Z,23.86
2018-08-22T12:39:37.018Z,23.86
2018-08-22T12:41:29.807Z,23.92
2018-08-22T12:42:29.760Z,23.92
2018-08-22T12:44:22.627Z,23.90
2018-08-22T12:45:22.503Z,23.94
2018-08-22T12:47:15.414Z,23.97
2018-08-22T12:48:15.249Z,23.89
2018-08-22T12:50:08.095Z,23.89
2018-08-22T12:51:07.996Z,23.98
2018-08-22T12:53:00.787Z,23.94
2018-08-22T12:54:00.739Z,23.89
2018-08-22T12:55:53.558Z,23.97
2018-08-22T12:56:53.480Z,23.98
2018-08-22T12:58:46.273Z,23.92
2018-08-22T12:59:46.225Z,23.92
2018-08-22T13:01:39.046Z,23.89
2018-08-22T13:02:38.966Z,23.89
2018-08-22T13:04:31.774Z,23.94
2018-08-22T13:05:31.709Z,23.95
2018-08-22T13:07:24.530Z,23.97
2018-08-22T13:08:24.450Z,23.94
2018-08-22T13:10:17.278Z,23.92
2018-08-22T13:11:17.229Z,23.95
2018-08-22T13:13:10.028Z,23.90
2018-08-22T13:14:09.991Z,24.01
2018-08-22T13:16:02.733Z,23.92
2018-08-22T13:17:02.732Z,24.00
2018-08-22T13:18:55.506Z,23.97
2018-08-22T13:19:55.428Z,23.97
2018-08-22T13:21:48.226Z,23.97
2018-08-22T13:22:48.173Z,23.97
2018-08-22T13:24:41.068Z,23.95
2018-08-22T13:25:40.917Z,23.97
2018-08-22T13:27:33.704Z,23.90
2018-08-22T13:28:33.657Z,23.97
2018-08-22T13:30:26.580Z,24.00
2018-08-22T13:31:26.403Z,23.94
2018-08-22T13:33:19.196Z,24.00
2018-08-22T13:34:19.149Z,23.94
2018-08-22T13:36:12.038Z,23.97
2018-08-22T13:37:11.894Z,23.98
2018-08-22T13:39:04.733Z,23.92
2018-08-22T13:40:04.637Z,23.97
2018-08-22T13:41:57.460Z,23.97
2018-08-22T13:42:57.381Z,23.98
2018-08-22T13:44:50.176Z,23.94
2018-08-22T13:45:50.134Z,23.94
2018-08-22T13:47:42.964Z,23.98
2018-08-22T13:48:42.875Z,23.97
2018-08-22T13:50:35.667Z,23.97
2018-08-22T13:51:35.620Z,23.94
2018-08-22T13:53:28.455Z,23.94
2018-08-22T13:54:28.364Z,23.98
2018-08-22T13:56:21.269Z,24.00
2018-08-22T13:57:21.108Z,23.98
2018-08-22T13:59:13.941Z,24.01
2018-08-22T14:00:13.849Z,23.97
2018-08-22T14:02:06.640Z,23.97
2018-08-22T14:03:06.593Z,23.95
2018-08-22T14:04:59.414Z,23.97
2018-08-22T14:05:59.335Z,23.95
2018-08-22T14:07:52.129Z,24.00
2018-08-22T14:08:52.076Z,23.98
2018-08-22T14:10:44.907Z,23.94
2018-08-22T14:11:44.820Z,23.94
2018-08-22T14:13:37.612Z,23.94
2018-08-22T14:14:37.563Z,23.94
2018-08-22T14:16:30.451Z,23.94
2018-08-22T14:17:30.308Z,23.95
2018-08-22T14:19:23.100Z,24.02
2018-08-22T14:20:23.052Z,24.02
2018-08-22T14:22:15.911Z,24.04
2018-08-22T14:23:15.794Z,24.02
2018-08-22T14:25:08.586Z,24.05
2018-08-22T14:26:08.539Z,24.04
2018-08-22T14:28:01.362Z,24.05
2018-08-22T14:29:01.285Z,24.02
2018-08-22T14:30:54.080Z,24.02
2018-08-22T14:31:54.030Z,24.04
2018-08-22T14:33:47.492Z,24.10
2018-08-22T14:34:46.772Z,24.10
2018-08-22T14:36:39.563Z,24.04
2018-08-22T14:37:39.514Z,24.02
2018-08-22T14:39:32.350Z,24.05
2018-08-22T14:40:32.259Z,24.05
2018-08-22T14:42:25.051Z,24.02
2018-08-22T14:43:25.002Z,24.04
2018-08-22T14:45:17.844Z,24.04
2018-08-22T14:46:17.748Z,24.05
2018-08-22T14:48:10.539Z,24.05
2018-08-22T14:49:10.491Z,24.08
2018-08-22T14:51:03.328Z,24.02
2018-08-22T14:52:03.237Z,24.07
2018-08-22T14:53:56.026Z,24.07
2018-08-22T14:54:55.978Z,24.10
2018-08-22T14:56:48.800Z,24.07
2018-08-22T14:57:48.722Z,24.04
2018-08-22T14:59:41.685Z,24.08
2018-08-22T15:00:41.466Z,24.08
2018-08-22T15:02:34.432Z,24.05
2018-08-22T15:03:34.448Z,24.08
2018-08-22T15:05:27.007Z,24.07
2018-08-22T15:06:26.958Z,24.12
2018-08-22T15:08:19.794Z,24.07
2018-08-22T15:09:19.701Z,24.12
2018-08-22T15:11:12.540Z,24.04
2018-08-22T15:12:12.490Z,24.07
2018-08-22T15:14:05.323Z,24.02
2018-08-22T15:15:05.234Z,24.08
2018-08-22T15:16:58.244Z,24.05
2018-08-22T15:17:58.195Z,24.01
2018-08-22T15:19:52.673Z,24.05
2018-08-22T15:20:50.940Z,24.05
2018-08-22T15:22:43.861Z,24.04
2018-08-22T15:23:44.390Z,24.04
2018-08-22T15:25:36.523Z,24.10
2018-08-22T15:26:36.639Z,24.04
2018-08-22T15:28:29.428Z,24.07
2018-08-22T15:29:29.281Z,24.07
2018-08-22T15:31:22.015Z,24.05
2018-08-22T15:32:21.922Z,24.08
2018-08-22T15:34:14.716Z,24.04
2018-08-22T15:35:14.664Z,24.04
2018-08-22T15:37:07.608Z,24.08
2018-08-22T15:38:07.410Z,24.04
2018-08-22T15:40:01.294Z,24.05
2018-08-22T15:41:00.279Z,24.07
2018-08-22T15:42:53.337Z,24.05
2018-08-22T15:43:53.309Z,24.02
2018-08-22T15:45:46.047Z,24.08
2018-08-22T15:46:45.996Z,24.10
2018-08-22T15:48:38.828Z,24.07
2018-08-22T15:49:38.754Z,24.07
2018-08-22T15:51:31.545Z,24.10
2018-08-22T15:52:31.497Z,24.10
2018-08-22T15:54:24.485Z,24.12
2018-08-22T15:55:24.238Z,24.12
2018-08-22T15:57:17.031Z,24.07
2018-08-22T15:58:16.983Z,24.10
2018-08-22T16:00:09.817Z,24.13
2018-08-22T16:01:09.727Z,24.12
2018-08-22T16:03:02.523Z,24.12
2018-08-22T16:04:02.472Z,24.10
2018-08-22T16:05:55.295Z,24.14
2018-08-22T16:06:55.215Z,24.07
2018-08-22T16:08:48.090Z,24.16
2018-08-22T16:09:47.956Z,24.16
2018-08-22T16:11:40.779Z,24.08
2018-08-22T16:12:40.701Z,24.20
2018-08-22T16:14:33.536Z,24.13
2018-08-22T16:15:33.446Z,24.13
2018-08-22T16:17:26.276Z,24.10
2018-08-22T16:18:26.192Z,24.16
2018-08-22T16:20:18.985Z,24.12
2018-08-22T16:21:18.936Z,24.13
2018-08-22T16:23:11.760Z,24.05
2018-08-22T16:24:11.745Z,24.16
2018-08-22T16:26:04.483Z,24.17
2018-08-22T16:27:04.426Z,24.05
2018-08-22T16:28:57.256Z,24.10
2018-08-22T16:29:57.170Z,24.07
2018-08-22T16:31:49.961Z,24.14
2018-08-22T16:32:49.914Z,24.12
2018-08-22T16:34:42.741Z,24.10
2018-08-22T16:35:42.658Z,24.22
2018-08-22T16:37:35.448Z,24.17
2018-08-22T16:38:35.399Z,24.10
2018-08-22T16:40:28.235Z,24.10
2018-08-22T16:41:28.146Z,24.12
2018-08-22T16:43:20.937Z,24.24
2018-08-22T16:44:20.890Z,24.12
2018-08-22T16:46:13.709Z,24.14
2018-08-22T16:47:13.631Z,24.07
2018-08-22T16:49:06.422Z,24.22
2018-08-22T16:50:06.373Z,24.19
2018-08-22T16:51:59.195Z,24.20
2018-08-22T16:52:59.114Z,24.19
2018-08-22T16:54:51.908Z,24.20
2018-08-22T16:55:51.859Z,24.22
2018-08-22T16:57:44.680Z,24.22
2018-08-22T16:58:44.605Z,24.17
2018-08-22T17:00:37.397Z,24.22
2018-08-22T17:01:37.346Z,24.20
2018-08-22T17:03:30.169Z,24.20
2018-08-22T17:04:30.088Z,24.22
2018-08-22T17:06:22.880Z,24.19
2018-08-22T17:07:22.833Z,24.17
2018-08-22T17:09:15.656Z,24.23
2018-08-22T17:10:15.576Z,24.13
2018-08-22T17:12:08.368Z,24.31
2018-08-22T17:13:08.323Z,24.22
2018-08-22T17:15:01.145Z,24.27
2018-08-22T17:16:01.067Z,24.23
2018-08-22T17:17:53.858Z,24.20
2018-08-22T17:18:53.811Z,24.20
2018-08-22T17:20:46.630Z,24.22
2018-08-22T17:21:46.552Z,24.22
2018-08-22T17:23:39.344Z,24.24
2018-08-22T17:24:39.297Z,24.23
2018-08-22T17:26:32.118Z,24.27
2018-08-22T17:27:32.076Z,24.19
2018-08-22T17:29:24.837Z,24.23
2018-08-22T17:30:24.787Z,24.19
2018-08-22T17:32:18.098Z,24.27
2018-08-22T17:33:18.021Z,24.27
2018-08-22T17:35:10.809Z,24.31
2018-08-22T17:36:10.761Z,24.22
2018-08-22T17:38:03.582Z,24.29
2018-08-22T17:39:03.502Z,24.29
2018-08-22T17:40:56.292Z,24.31
2018-08-22T17:41:56.243Z,24.27
2018-08-22T17:43:49.065Z,24.31
2018-08-22T17:44:48.986Z,24.29
2018-08-22T17:46:41.781Z,24.29
2018-08-22T17:47:41.733Z,24.32
2018-08-22T17:49:34.551Z,24.19
2018-08-22T17:50:34.472Z,24.24
2018-08-22T17:52:27.264Z,24.29
2018-08-22T17:53:27.216Z,24.31
2018-08-22T17:55:20.103Z,24.32
2018-08-22T17:56:19.960Z,24.34
2018-08-22T17:58:12.751Z,24.27
2018-08-22T17:59:12.704Z,24.22
2018-08-22T18:01:05.527Z,24.29
2018-08-22T18:02:05.447Z,24.37
2018-08-22T18:03:58.241Z,24.37
2018-08-22T18:04:58.195Z,24.34
2018-08-22T18:06:51.018Z,24.24
2018-08-22T18:07:50.938Z,24.34
2018-08-22T18:09:43.727Z,24.31
2018-08-22T18:10:43.681Z,24.31
2018-08-22T18:12:36.502Z,24.22
2018-08-22T18:13:36.422Z,24.24
2018-08-22T18:15:29.216Z,24.31
2018-08-22T18:16:29.167Z,24.27
2018-08-22T18:18:21.988Z,24.26
2018-08-22T18:19:21.979Z,24.31
2018-08-22T18:21:14.706Z,24.29
2018-08-22T18:22:14.659Z,24.24
2018-08-22T18:24:07.479Z,24.26
2018-08-22T18:25:07.403Z,24.31
2018-08-22T18:27:00.190Z,24.31
2018-08-22T18:28:00.142Z,24.31
2018-08-22T18:29:52.982Z,24.24
2018-08-22T18:30:52.888Z,24.27
2018-08-22T18:32:45.680Z,24.31